John Quigg — WDB9828 — position and weather

sailwx.info

Track history (hours):
 
Tides and Currents Weather Stations Pressure Air Temp Water Temp Dewpoint Dewpoint Depression Visibility Wind Speed Wind Dir Waves Ship Positions

John Quigg

Owner: Harley Marine Services, Inc, Seattle, WA. More information available from US FCC via Universal Licensing System and Coast Guard Vessel Documentation Center.

Last reported at 2017-Dec-03 07:38 UTC. Time now 2017-Dec-16 08:59 UTC.
Position N 33°44' W 118°16'.
Warning: this ship's position is 13 days out of date.

Length 27 m.

MMSI: 365934954.

Date/timePositionNaut miles runAvg speedWind from/ knotsBaromVisibWave heightAir tempDewpointWater temp
2017-Dec-03 07:38N 33°44' W 118°16'0 0.0
2017-Dec-03 07:18N 33°44' W 118°16'0 0.0
2017-Dec-02 19:22N 33°44' W 118°16'0 0.0
2017-Dec-02 18:54N 33°44' W 118°16'0 0.0
2017-Dec-01 23:29N 33°44' W 118°16'0 0.0
2017-Dec-01 22:59N 33°44' W 118°16'0 0.0
2017-Dec-01 19:38N 33°44' W 118°16'0 0.0
2017-Dec-01 19:30N 33°44' W 118°16'0 0.0
2017-Dec-01 13:56N 33°44' W 118°16'0 0.0
2017-Dec-01 02:33N 33°44' W 118°15'0 0.9
2017-Dec-01 02:30N 33°44' W 118°15'0 0.2
2017-Dec-01 02:00N 33°44' W 118°15'0 0.1
2017-Dec-01 00:46N 33°44' W 118°15'0 0.0
2017-Nov-29 23:31N 33°44' W 118°16'0 0.4
2017-Nov-29 23:31N 33°44' W 118°16'0 0.0
2017-Nov-29 22:45N 33°44' W 118°16'0 0.0
2017-Nov-29 22:29N 33°44' W 118°16'0 0.0
2017-Nov-29 21:53N 33°44' W 118°16'0 0.0
2017-Nov-29 19:39N 33°44' W 118°16'0 0.0
2017-Nov-29 19:23N 33°44' W 118°16'0 0.0
2017-Nov-29 19:00N 33°44' W 118°16'0 0.0
2017-Nov-29 17:25N 33°44' W 118°16'0 0.0
2017-Nov-29 03:53N 33°44' W 118°16'0 0.0
2017-Nov-29 03:30N 33°44' W 118°16'0 0.0
2017-Nov-29 00:59N 33°44' W 118°16'0 0.0
2017-Nov-29 00:30N 33°44' W 118°16'0 0.0
2017-Nov-29 00:00N 33°44' W 118°16'0 0.0
2017-Nov-28 23:30N 33°44' W 118°16'0 0.0
2017-Nov-28 22:48N 33°44' W 118°16'0 0.0
2017-Nov-27 04:43N 33°44' W 118°16'1 0.0
2017-Nov-26 02:13N 33°43' W 118°16'1 0.2
2017-Nov-25 22:33N 33°44' W 118°16'0 0.0
2017-Nov-25 22:30N 33°44' W 118°16'1 0.8
2017-Nov-25 21:49N 33°43' W 118°16'1 3.6
2017-Nov-25 21:24N 33°45' W 118°17'1 0.2
2017-Nov-25 13:03N 33°44' W 118°16'0 0.0
2017-Nov-25 12:59N 33°44' W 118°16'0 0.0
2017-Nov-25 11:21N 33°44' W 118°16'0 0.0
2017-Nov-25 11:00N 33°44' W 118°16'0 0.0
2017-Nov-25 10:30N 33°44' W 118°16'0 0.0
2017-Nov-25 10:00N 33°44' W 118°16'0 0.0
2017-Nov-25 09:30N 33°44' W 118°16'0 0.0
2017-Nov-25 09:00N 33°44' W 118°16'0 0.0
2017-Nov-25 08:30N 33°44' W 118°16'0 0.0
2017-Nov-25 07:02N 33°44' W 118°16'0 0.0
2017-Nov-25 06:59N 33°44' W 118°16'0 0.0
2017-Nov-25 06:30N 33°44' W 118°16'0 0.0
2017-Nov-25 05:57N 33°44' W 118°16'0 0.0
2017-Nov-25 05:30N 33°44' W 118°16'3 0.2
2017-Nov-24 13:39N 33°46' W 118°13'2 6.2
2017-Nov-24 13:23N 33°45' W 118°12'0 0.3
2017-Nov-24 12:53N 33°45' W 118°12'3 1.7
2017-Nov-24 10:59N 33°44' W 118°16'0 0.0
2017-Nov-24 10:30N 33°44' W 118°16'  
Track history (hours):
 
Tides and Currents Weather Stations Pressure Air Temp Water Temp Dewpoint Dewpoint Depression Visibility Wind Speed Wind Dir Waves Ship Positions

John Quigg

Owner: Harley Marine Services, Inc, Seattle, WA. More information available from US FCC via Universal Licensing System and Coast Guard Vessel Documentation Center.

Last reported at 2017-Dec-03 07:38 UTC. Time now 2017-Dec-16 08:59 UTC.
Position N 33°44' W 118°16'.
Warning: this ship's position is 13 days out of date.

Length 27 m.

MMSI: 365934954.

Date/timePositionNaut miles runAvg speedWind from/ knotsBaromVisibWave heightAir tempDewpointWater temp
2017-Dec-03 07:38N 33°44' W 118°16'0 0.0
2017-Dec-03 07:18N 33°44' W 118°16'0 0.0
2017-Dec-02 19:22N 33°44' W 118°16'0 0.0
2017-Dec-02 18:54N 33°44' W 118°16'0 0.0
2017-Dec-01 23:29N 33°44' W 118°16'0 0.0
2017-Dec-01 22:59N 33°44' W 118°16'0 0.0
2017-Dec-01 19:38N 33°44' W 118°16'0 0.0
2017-Dec-01 19:30N 33°44' W 118°16'0 0.0
2017-Dec-01 13:56N 33°44' W 118°16'0 0.0
2017-Dec-01 02:33N 33°44' W 118°15'0 0.9
2017-Dec-01 02:30N 33°44' W 118°15'0 0.2
2017-Dec-01 02:00N 33°44' W 118°15'0 0.1
2017-Dec-01 00:46N 33°44' W 118°15'0 0.0
2017-Nov-29 23:31N 33°44' W 118°16'0 0.4
2017-Nov-29 23:31N 33°44' W 118°16'0 0.0
2017-Nov-29 22:45N 33°44' W 118°16'0 0.0
2017-Nov-29 22:29N 33°44' W 118°16'0 0.0
2017-Nov-29 21:53N 33°44' W 118°16'0 0.0
2017-Nov-29 19:39N 33°44' W 118°16'0 0.0
2017-Nov-29 19:23N 33°44' W 118°16'0 0.0
2017-Nov-29 19:00N 33°44' W 118°16'0 0.0
2017-Nov-29 17:25N 33°44' W 118°16'0 0.0
2017-Nov-29 03:53N 33°44' W 118°16'0 0.0
2017-Nov-29 03:30N 33°44' W 118°16'0 0.0
2017-Nov-29 00:59N 33°44' W 118°16'0 0.0
2017-Nov-29 00:30N 33°44' W 118°16'0 0.0
2017-Nov-29 00:00N 33°44' W 118°16'0 0.0
2017-Nov-28 23:30N 33°44' W 118°16'0 0.0
2017-Nov-28 22:48N 33°44' W 118°16'0 0.0
2017-Nov-27 04:43N 33°44' W 118°16'1 0.0
2017-Nov-26 02:13N 33°43' W 118°16'1 0.2
2017-Nov-25 22:33N 33°44' W 118°16'0 0.0
2017-Nov-25 22:30N 33°44' W 118°16'1 0.8
2017-Nov-25 21:49N 33°43' W 118°16'1 3.6
2017-Nov-25 21:24N 33°45' W 118°17'1 0.2
2017-Nov-25 13:03N 33°44' W 118°16'0 0.0
2017-Nov-25 12:59N 33°44' W 118°16'0 0.0
2017-Nov-25 11:21N 33°44' W 118°16'0 0.0
2017-Nov-25 11:00N 33°44' W 118°16'0 0.0
2017-Nov-25 10:30N 33°44' W 118°16'0 0.0
2017-Nov-25 10:00N 33°44' W 118°16'0 0.0
2017-Nov-25 09:30N 33°44' W 118°16'0 0.0
2017-Nov-25 09:00N 33°44' W 118°16'0 0.0
2017-Nov-25 08:30N 33°44' W 118°16'0 0.0
2017-Nov-25 07:02N 33°44' W 118°16'0 0.0
2017-Nov-25 06:59N 33°44' W 118°16'0 0.0
2017-Nov-25 06:30N 33°44' W 118°16'0 0.0
2017-Nov-25 05:57N 33°44' W 118°16'0 0.0
2017-Nov-25 05:30N 33°44' W 118°16'3 0.2
2017-Nov-24 13:39N 33°46' W 118°13'2 6.2
2017-Nov-24 13:23N 33°45' W 118°12'0 0.3
2017-Nov-24 12:53N 33°45' W 118°12'3 1.7
2017-Nov-24 10:59N 33°44' W 118°16'0 0.0
2017-Nov-24 10:30N 33°44' W 118°16'  

Dump ship's entire track history